Felton, Delaware
Current Conditions -  °F | °C
As of 3:58 AM on Friday 28 Nov 2014 (Local Time) from KDOV Reporting Station
Scattered Clouds Scattered Clouds  
Wind Chill: 26°   Ceiling: Unl
Heat Index: 34°   Visibility: 10mi
Dew Point: 29°   Wind: 12mph
Humidity: 81%   Direction: 290°WNW
Pressure: 30.14"   Gusts: NA
Location:  39.01°N, 75.58°W
Report Text: KDOV 280858Z AUTO 29010KT 10SM SCT055 01/M02 A3014 RMK AO2 SLP210 T00131017 52010
Loading
Personal Weather Stations






























Interactive Weather Map New forecast layout! Learn more

10-Day Weather Forecast

Advertisements
Track Severe Weather on mobile